sensor_id;sensor_type;location;lat;lon;timestamp;P1;durP1;ratioP1;P2;durP2;ratioP2
3633;SDS011;1833;42.718;23.270;2023-04-22T00:01:33;38.43;;;29.60;;
3633;SDS011;1833;42.718;23.270;2023-04-22T00:04:00;33.80;;;30.20;;
3633;SDS011;1833;42.718;23.270;2023-04-22T00:06:28;31.80;;;28.80;;
3633;SDS011;1833;42.718;23.270;2023-04-22T00:08:55;32.77;;;29.73;;
3633;SDS011;1833;42.718;23.270;2023-04-22T00:11:24;32.30;;;29.10;;
3633;SDS011;1833;42.718;23.270;2023-04-22T00:13:51;39.07;;;31.43;;
3633;SDS011;1833;42.718;23.270;2023-04-22T00:16:18;31.13;;;28.03;;
3633;SDS011;1833;42.718;23.270;2023-04-22T00:18:45;32.13;;;28.80;;
3633;SDS011;1833;42.718;23.270;2023-04-22T00:21:13;33.40;;;30.30;;
3633;SDS011;1833;42.718;23.270;2023-04-22T00:23:40;31.77;;;28.67;;
3633;SDS011;1833;42.718;23.270;2023-04-22T00:26:09;34.50;;;30.13;;
3633;SDS011;1833;42.718;23.270;2023-04-22T00:28:38;33.13;;;29.80;;
3633;SDS011;1833;42.718;23.270;2023-04-22T00:31:05;35.13;;;30.00;;
3633;SDS011;1833;42.718;23.270;2023-04-22T00:33:32;34.50;;;30.03;;
3633;SDS011;1833;42.718;23.270;2023-04-22T00:36:00;32.60;;;29.10;;
3633;SDS011;1833;42.718;23.270;2023-04-22T00:38:27;32.53;;;29.17;;
3633;SDS011;1833;42.718;23.270;2023-04-22T00:40:55;33.33;;;30.13;;
3633;SDS011;1833;42.718;23.270;2023-04-22T00:43:23;32.80;;;29.80;;
3633;SDS011;1833;42.718;23.270;2023-04-22T00:45:52;35.70;;;31.00;;
3633;SDS011;1833;42.718;23.270;2023-04-22T00:48:19;33.73;;;30.33;;
3633;SDS011;1833;42.718;23.270;2023-04-22T00:50:46;31.40;;;28.07;;
3633;SDS011;1833;42.718;23.270;2023-04-22T00:53:14;33.00;;;30.00;;
3633;SDS011;1833;42.718;23.270;2023-04-22T00:55:41;32.60;;;29.20;;
3633;SDS011;1833;42.718;23.270;2023-04-22T00:58:08;41.03;;;29.93;;
3633;SDS011;1833;42.718;23.270;2023-04-22T01:00:36;33.37;;;29.77;;
3633;SDS011;1833;42.718;23.270;2023-04-22T01:03:05;31.93;;;28.73;;
3633;SDS011;1833;42.718;23.270;2023-04-22T01:05:32;31.27;;;28.23;;
3633;SDS011;1833;42.718;23.270;2023-04-22T01:08:00;32.80;;;29.20;;
3633;SDS011;1833;42.718;23.270;2023-04-22T01:10:28;33.03;;;29.80;;
3633;SDS011;1833;42.718;23.270;2023-04-22T01:12:55;35.90;;;30.83;;
3633;SDS011;1833;42.718;23.270;2023-04-22T01:15:22;33.03;;;29.93;;
3633;SDS011;1833;42.718;23.270;2023-04-22T01:17:49;35.20;;;31.40;;
3633;SDS011;1833;42.718;23.270;2023-04-22T01:20:19;32.20;;;29.20;;
3633;SDS011;1833;42.718;23.270;2023-04-22T01:22:47;32.90;;;29.20;;
3633;SDS011;1833;42.718;23.270;2023-04-22T01:25:16;35.73;;;31.73;;
3633;SDS011;1833;42.718;23.270;2023-04-22T01:27:43;31.63;;;28.47;;
3633;SDS011;1833;42.718;23.270;2023-04-22T01:30:11;33.57;;;30.03;;
3633;SDS011;1833;42.718;23.270;2023-04-22T01:32:38;32.53;;;29.33;;
3633;SDS011;1833;42.718;23.270;2023-04-22T01:35:07;30.80;;;28.20;;
3633;SDS011;1833;42.718;23.270;2023-04-22T01:37:34;29.10;;;26.20;;
3633;SDS011;1833;42.718;23.270;2023-04-22T01:40:02;30.20;;;27.30;;
3633;SDS011;1833;42.718;23.270;2023-04-22T01:42:31;31.67;;;28.67;;
3633;SDS011;1833;42.718;23.270;2023-04-22T01:44:58;31.20;;;27.87;;
3633;SDS011;1833;42.718;23.270;2023-04-22T01:47:25;31.37;;;27.63;;
3633;SDS011;1833;42.718;23.270;2023-04-22T01:49:53;33.40;;;27.77;;
3633;SDS011;1833;42.718;23.270;2023-04-22T01:52:20;32.83;;;27.07;;
3633;SDS011;1833;42.718;23.270;2023-04-22T01:54:47;30.17;;;27.17;;
3633;SDS011;1833;42.718;23.270;2023-04-22T01:57:15;31.67;;;28.47;;
3633;SDS011;1833;42.718;23.270;2023-04-22T01:59:43;36.13;;;28.90;;
3633;SDS011;1833;42.718;23.270;2023-04-22T02:02:10;31.70;;;27.23;;
3633;SDS011;1833;42.718;23.270;2023-04-22T02:04:38;31.10;;;28.07;;
3633;SDS011;1833;42.718;23.270;2023-04-22T02:07:05;29.63;;;26.83;;
3633;SDS011;1833;42.718;23.270;2023-04-22T02:09:32;29.37;;;26.67;;
3633;SDS011;1833;42.718;23.270;2023-04-22T02:12:00;29.70;;;26.50;;
3633;SDS011;1833;42.718;23.270;2023-04-22T02:14:27;29.40;;;26.50;;
3633;SDS011;1833;42.718;23.270;2023-04-22T02:16:55;29.83;;;26.83;;
3633;SDS011;1833;42.718;23.270;2023-04-22T02:19:23;28.57;;;25.87;;
3633;SDS011;1833;42.718;23.270;2023-04-22T02:21:50;28.90;;;26.03;;
3633;SDS011;1833;42.718;23.270;2023-04-22T02:24:17;29.70;;;26.80;;
3633;SDS011;1833;42.718;23.270;2023-04-22T02:26:44;30.30;;;27.60;;
3633;SDS011;1833;42.718;23.270;2023-04-22T02:29:13;28.53;;;25.83;;
3633;SDS011;1833;42.718;23.270;2023-04-22T02:31:41;30.60;;;27.63;;
3633;SDS011;1833;42.718;23.270;2023-04-22T02:34:09;29.80;;;27.10;;
3633;SDS011;1833;42.718;23.270;2023-04-22T02:36:37;27.53;;;25.17;;
3633;SDS011;1833;42.718;23.270;2023-04-22T02:39:04;29.17;;;26.70;;
3633;SDS011;1833;42.718;23.270;2023-04-22T02:41:31;30.57;;;27.50;;
3633;SDS011;1833;42.718;23.270;2023-04-22T02:43:58;29.87;;;27.17;;
3633;SDS011;1833;42.718;23.270;2023-04-22T02:46:26;29.73;;;27.00;;
3633;SDS011;1833;42.718;23.270;2023-04-22T02:48:53;29.17;;;25.93;;
3633;SDS011;1833;42.718;23.270;2023-04-22T02:51:21;29.87;;;27.13;;
3633;SDS011;1833;42.718;23.270;2023-04-22T02:53:49;29.57;;;26.83;;
3633;SDS011;1833;42.718;23.270;2023-04-22T02:56:16;29.40;;;26.70;;
3633;SDS011;1833;42.718;23.270;2023-04-22T02:58:43;28.57;;;25.70;;
3633;SDS011;1833;42.718;23.270;2023-04-22T03:01:10;30.47;;;27.47;;
3633;SDS011;1833;42.718;23.270;2023-04-22T03:03:38;28.50;;;25.90;;
3633;SDS011;1833;42.718;23.270;2023-04-22T03:06:05;29.33;;;26.50;;
3633;SDS011;1833;42.718;23.270;2023-04-22T03:08:34;29.30;;;26.57;;
3633;SDS011;1833;42.718;23.270;2023-04-22T03:11:01;29.37;;;26.67;;
3633;SDS011;1833;42.718;23.270;2023-04-22T03:13:28;28.30;;;25.60;;
3633;SDS011;1833;42.718;23.270;2023-04-22T03:15:55;29.80;;;27.10;;
3633;SDS011;1833;42.718;23.270;2023-04-22T03:18:23;37.87;;;27.73;;
3633;SDS011;1833;42.718;23.270;2023-04-22T03:20:50;29.20;;;26.43;;
3633;SDS011;1833;42.718;23.270;2023-04-22T03:23:17;30.73;;;27.50;;
3633;SDS011;1833;42.718;23.270;2023-04-22T03:25:46;30.57;;;27.77;;
3633;SDS011;1833;42.718;23.270;2023-04-22T03:28:13;28.90;;;26.20;;
3633;SDS011;1833;42.718;23.270;2023-04-22T03:30:41;29.10;;;26.23;;
3633;SDS011;1833;42.718;23.270;2023-04-22T03:33:08;29.90;;;26.80;;
3633;SDS011;1833;42.718;23.270;2023-04-22T03:35:35;29.00;;;26.20;;
3633;SDS011;1833;42.718;23.270;2023-04-22T03:38:02;28.13;;;24.93;;
3633;SDS011;1833;42.718;23.270;2023-04-22T03:40:29;29.50;;;26.90;;
3633;SDS011;1833;42.718;23.270;2023-04-22T03:42:58;31.63;;;28.03;;
3633;SDS011;1833;42.718;23.270;2023-04-22T03:45:25;29.93;;;26.73;;
3633;SDS011;1833;42.718;23.270;2023-04-22T03:47:53;31.27;;;28.30;;
3633;SDS011;1833;42.718;23.270;2023-04-22T03:50:20;29.83;;;27.23;;
3633;SDS011;1833;42.718;23.270;2023-04-22T03:52:47;29.57;;;26.83;;
3633;SDS011;1833;42.718;23.270;2023-04-22T03:55:15;29.70;;;26.80;;
3633;SDS011;1833;42.718;23.270;2023-04-22T03:57:42;29.20;;;26.50;;
3633;SDS011;1833;42.718;23.270;2023-04-22T04:00:11;31.93;;;28.53;;
3633;SDS011;1833;42.718;23.270;2023-04-22T04:02:39;32.47;;;28.00;;
3633;SDS011;1833;42.718;23.270;2023-04-22T04:05:06;36.37;;;27.73;;
3633;SDS011;1833;42.718;23.270;2023-04-22T04:07:35;29.87;;;26.83;;
3633;SDS011;1833;42.718;23.270;2023-04-22T04:10:02;30.10;;;27.33;;
3633;SDS011;1833;42.718;23.270;2023-04-22T04:12:29;29.50;;;26.40;;
3633;SDS011;1833;42.718;23.270;2023-04-22T04:14:57;32.37;;;26.80;;
3633;SDS011;1833;42.718;23.270;2023-04-22T04:17:25;31.83;;;26.33;;
3633;SDS011;1833;42.718;23.270;2023-04-22T04:19:53;29.53;;;26.73;;
3633;SDS011;1833;42.718;23.270;2023-04-22T04:22:20;30.20;;;26.50;;
3633;SDS011;1833;42.718;23.270;2023-04-22T04:24:48;27.70;;;24.70;;
3633;SDS011;1833;42.718;23.270;2023-04-22T04:27:16;42.10;;;29.30;;
3633;SDS011;1833;42.718;23.270;2023-04-22T04:29:43;41.87;;;28.50;;
3633;SDS011;1833;42.718;23.270;2023-04-22T04:32:11;37.40;;;30.87;;
3633;SDS011;1833;42.718;23.270;2023-04-22T04:34:40;38.00;;;32.13;;
3633;SDS011;1833;42.718;23.270;2023-04-22T04:37:07;41.00;;;33.40;;
3633;SDS011;1833;42.718;23.270;2023-04-22T04:39:35;36.90;;;32.20;;
3633;SDS011;1833;42.718;23.270;2023-04-22T04:42:02;40.87;;;33.00;;
3633;SDS011;1833;42.718;23.270;2023-04-22T04:44:30;45.93;;;34.23;;
3633;SDS011;1833;42.718;23.270;2023-04-22T04:46:58;41.33;;;33.57;;
3633;SDS011;1833;42.718;23.270;2023-04-22T04:49:25;35.47;;;31.67;;
3633;SDS011;1833;42.718;23.270;2023-04-22T04:51:56;36.63;;;32.67;;
3633;SDS011;1833;42.718;23.270;2023-04-22T04:54:23;39.73;;;31.53;;
3633;SDS011;1833;42.718;23.270;2023-04-22T04:56:50;36.33;;;32.43;;
3633;SDS011;1833;42.718;23.270;2023-04-22T04:59:17;35.87;;;32.50;;
3633;SDS011;1833;42.718;23.270;2023-04-22T05:01:45;41.27;;;31.13;;
3633;SDS011;1833;42.718;23.270;2023-04-22T05:04:12;33.97;;;30.57;;
3633;SDS011;1833;42.718;23.270;2023-04-22T05:06:39;37.07;;;31.23;;
3633;SDS011;1833;42.718;23.270;2023-04-22T05:09:08;35.40;;;31.90;;
3633;SDS011;1833;42.718;23.270;2023-04-22T05:11:35;34.20;;;30.90;;
3633;SDS011;1833;42.718;23.270;2023-04-22T05:14:02;38.00;;;33.47;;
3633;SDS011;1833;42.718;23.270;2023-04-22T05:16:29;32.00;;;28.87;;
3633;SDS011;1833;42.718;23.270;2023-04-22T05:18:57;32.97;;;29.77;;
3633;SDS011;1833;42.718;23.270;2023-04-22T05:21:24;32.97;;;29.80;;
3633;SDS011;1833;42.718;23.270;2023-04-22T05:23:51;31.90;;;28.73;;
3633;SDS011;1833;42.718;23.270;2023-04-22T05:26:20;33.80;;;29.30;;
3633;SDS011;1833;42.718;23.270;2023-04-22T05:28:47;32.00;;;29.10;;
3633;SDS011;1833;42.718;23.270;2023-04-22T05:31:14;33.20;;;30.00;;
3633;SDS011;1833;42.718;23.270;2023-04-22T05:33:42;31.70;;;28.67;;
3633;SDS011;1833;42.718;23.270;2023-04-22T05:36:09;32.70;;;29.53;;
3633;SDS011;1833;42.718;23.270;2023-04-22T05:38:36;32.30;;;29.00;;
3633;SDS011;1833;42.718;23.270;2023-04-22T05:41:03;31.53;;;28.63;;
3633;SDS011;1833;42.718;23.270;2023-04-22T05:43:32;33.20;;;29.90;;
3633;SDS011;1833;42.718;23.270;2023-04-22T05:45:59;32.47;;;29.50;;
3633;SDS011;1833;42.718;23.270;2023-04-22T05:48:27;33.07;;;29.73;;
3633;SDS011;1833;42.718;23.270;2023-04-22T05:50:54;31.93;;;28.33;;
3633;SDS011;1833;42.718;23.270;2023-04-22T05:53:21;32.70;;;29.43;;
3633;SDS011;1833;42.718;23.270;2023-04-22T05:55:49;40.10;;;36.03;;
3633;SDS011;1833;42.718;23.270;2023-04-22T05:58:16;39.37;;;33.93;;
3633;SDS011;1833;42.718;23.270;2023-04-22T06:00:45;37.50;;;33.27;;
3633;SDS011;1833;42.718;23.270;2023-04-22T06:03:12;50.40;;;42.73;;
3633;SDS011;1833;42.718;23.270;2023-04-22T06:05:39;34.37;;;30.70;;
3633;SDS011;1833;42.718;23.270;2023-04-22T06:08:08;58.77;;;42.13;;
3633;SDS011;1833;42.718;23.270;2023-04-22T06:10:35;53.97;;;43.13;;
3633;SDS011;1833;42.718;23.270;2023-04-22T06:13:02;84.70;;;56.53;;
3633;SDS011;1833;42.718;23.270;2023-04-22T06:15:30;49.47;;;41.73;;
3633;SDS011;1833;42.718;23.270;2023-04-22T06:17:58;37.03;;;32.73;;
3633;SDS011;1833;42.718;23.270;2023-04-22T06:20:26;36.30;;;31.80;;
3633;SDS011;1833;42.718;23.270;2023-04-22T06:22:53;73.03;;;52.53;;
3633;SDS011;1833;42.718;23.270;2023-04-22T06:25:20;41.27;;;36.77;;
3633;SDS011;1833;42.718;23.270;2023-04-22T06:27:47;32.60;;;29.43;;
3633;SDS011;1833;42.718;23.270;2023-04-22T06:30:15;31.83;;;28.63;;
3633;SDS011;1833;42.718;23.270;2023-04-22T06:32:42;33.83;;;30.33;;
3633;SDS011;1833;42.718;23.270;2023-04-22T06:35:11;42.67;;;33.77;;
3633;SDS011;1833;42.718;23.270;2023-04-22T06:37:38;35.87;;;32.10;;
3633;SDS011;1833;42.718;23.270;2023-04-22T06:40:06;41.00;;;36.43;;
3633;SDS011;1833;42.718;23.270;2023-04-22T06:42:34;55.30;;;44.57;;
3633;SDS011;1833;42.718;23.270;2023-04-22T06:45:01;55.60;;;47.60;;
3633;SDS011;1833;42.718;23.270;2023-04-22T06:47:29;54.80;;;48.83;;
3633;SDS011;1833;42.718;23.270;2023-04-22T06:49:56;39.77;;;35.67;;
3633;SDS011;1833;42.718;23.270;2023-04-22T06:52:24;40.43;;;35.30;;
3633;SDS011;1833;42.718;23.270;2023-04-22T06:54:52;33.10;;;29.80;;
3633;SDS011;1833;42.718;23.270;2023-04-22T06:57:19;33.30;;;30.20;;
3633;SDS011;1833;42.718;23.270;2023-04-22T06:59:46;33.77;;;30.57;;
3633;SDS011;1833;42.718;23.270;2023-04-22T07:02:13;32.70;;;29.70;;
3633;SDS011;1833;42.718;23.270;2023-04-22T07:04:41;31.20;;;28.00;;
3633;SDS011;1833;42.718;23.270;2023-04-22T07:07:08;32.50;;;29.23;;
3633;SDS011;1833;42.718;23.270;2023-04-22T07:09:37;33.37;;;30.03;;
3633;SDS011;1833;42.718;23.270;2023-04-22T07:12:04;39.30;;;30.30;;
3633;SDS011;1833;42.718;23.270;2023-04-22T07:14:31;32.90;;;29.60;;
3633;SDS011;1833;42.718;23.270;2023-04-22T07:16:59;31.87;;;28.97;;
3633;SDS011;1833;42.718;23.270;2023-04-22T07:19:26;31.47;;;28.67;;
3633;SDS011;1833;42.718;23.270;2023-04-22T07:21:54;32.27;;;29.27;;
3633;SDS011;1833;42.718;23.270;2023-04-22T07:24:21;32.17;;;28.80;;
3633;SDS011;1833;42.718;23.270;2023-04-22T07:26:49;32.73;;;29.20;;
3633;SDS011;1833;42.718;23.270;2023-04-22T07:29:17;31.73;;;28.73;;
3633;SDS011;1833;42.718;23.270;2023-04-22T07:31:44;31.80;;;28.57;;
3633;SDS011;1833;42.718;23.270;2023-04-22T07:34:11;31.67;;;28.87;;
3633;SDS011;1833;42.718;23.270;2023-04-22T07:36:39;30.23;;;27.43;;
3633;SDS011;1833;42.718;23.270;2023-04-22T07:39:07;30.70;;;27.70;;
3633;SDS011;1833;42.718;23.270;2023-04-22T07:41:35;30.90;;;28.20;;
3633;SDS011;1833;42.718;23.270;2023-04-22T07:44:03;32.00;;;28.90;;
3633;SDS011;1833;42.718;23.270;2023-04-22T07:46:31;32.47;;;29.77;;
3633;SDS011;1833;42.718;23.270;2023-04-22T07:48:58;31.60;;;28.57;;
3633;SDS011;1833;42.718;23.270;2023-04-22T07:51:25;30.03;;;27.53;;
3633;SDS011;1833;42.718;23.270;2023-04-22T07:53:52;30.00;;;27.03;;
3633;SDS011;1833;42.718;23.270;2023-04-22T07:56:20;29.30;;;26.70;;
3633;SDS011;1833;42.718;23.270;2023-04-22T07:58:47;31.07;;;27.80;;
3633;SDS011;1833;42.718;23.270;2023-04-22T08:01:16;31.33;;;28.33;;
3633;SDS011;1833;42.718;23.270;2023-04-22T08:03:43;32.07;;;29.00;;
3633;SDS011;1833;42.718;23.270;2023-04-22T08:06:10;34.70;;;27.70;;
3633;SDS011;1833;42.718;23.270;2023-04-22T08:08:37;30.30;;;27.70;;
3633;SDS011;1833;42.718;23.270;2023-04-22T08:11:05;31.37;;;28.67;;
3633;SDS011;1833;42.718;23.270;2023-04-22T08:13:33;30.43;;;27.33;;
3633;SDS011;1833;42.718;23.270;2023-04-22T08:16:00;29.40;;;26.90;;
3633;SDS011;1833;42.718;23.270;2023-04-22T08:18:29;31.03;;;28.07;;
3633;SDS011;1833;42.718;23.270;2023-04-22T08:20:56;33.47;;;30.40;;
3633;SDS011;1833;42.718;23.270;2023-04-22T08:23:23;30.73;;;28.03;;
3633;SDS011;1833;42.718;23.270;2023-04-22T08:25:51;32.33;;;29.30;;
3633;SDS011;1833;42.718;23.270;2023-04-22T08:28:18;31.27;;;28.47;;
3633;SDS011;1833;42.718;23.270;2023-04-22T08:30:45;31.87;;;28.67;;
3633;SDS011;1833;42.718;23.270;2023-04-22T08:33:13;32.20;;;29.07;;
3633;SDS011;1833;42.718;23.270;2023-04-22T08:35:41;32.83;;;29.37;;
3633;SDS011;1833;42.718;23.270;2023-04-22T08:38:09;30.30;;;27.53;;
3633;SDS011;1833;42.718;23.270;2023-04-22T08:40:37;33.30;;;30.43;;
3633;SDS011;1833;42.718;23.270;2023-04-22T08:43:06;32.53;;;29.43;;
3633;SDS011;1833;42.718;23.270;2023-04-22T08:45:33;31.23;;;28.63;;
3633;SDS011;1833;42.718;23.270;2023-04-22T08:48:03;32.93;;;29.73;;
3633;SDS011;1833;42.718;23.270;2023-04-22T08:50:31;32.13;;;29.23;;
3633;SDS011;1833;42.718;23.270;2023-04-22T08:53:00;33.40;;;30.40;;
3633;SDS011;1833;42.718;23.270;2023-04-22T08:55:27;33.27;;;29.57;;
3633;SDS011;1833;42.718;23.270;2023-04-22T08:57:54;33.60;;;30.40;;
3633;SDS011;1833;42.718;23.270;2023-04-22T09:00:22;34.67;;;31.50;;
3633;SDS011;1833;42.718;23.270;2023-04-22T09:02:49;38.27;;;31.07;;
3633;SDS011;1833;42.718;23.270;2023-04-22T09:05:17;34.83;;;31.40;;
3633;SDS011;1833;42.718;23.270;2023-04-22T09:07:45;38.10;;;30.33;;
3633;SDS011;1833;42.718;23.270;2023-04-22T09:10:14;35.20;;;30.80;;
3633;SDS011;1833;42.718;23.270;2023-04-22T09:12:41;37.30;;;32.47;;
3633;SDS011;1833;42.718;23.270;2023-04-22T09:15:09;34.10;;;30.90;;
3633;SDS011;1833;42.718;23.270;2023-04-22T09:17:37;34.07;;;30.53;;
3633;SDS011;1833;42.718;23.270;2023-04-22T09:20:05;31.50;;;28.50;;
3633;SDS011;1833;42.718;23.270;2023-04-22T09:22:37;32.60;;;29.50;;
3633;SDS011;1833;42.718;23.270;2023-04-22T09:25:05;32.47;;;29.50;;
3633;SDS011;1833;42.718;23.270;2023-04-22T09:27:34;30.73;;;27.67;;
3633;SDS011;1833;42.718;23.270;2023-04-22T09:30:02;37.43;;;28.50;;
3633;SDS011;1833;42.718;23.270;2023-04-22T09:32:33;32.63;;;29.43;;
3633;SDS011;1833;42.718;23.270;2023-04-22T09:35:01;37.33;;;29.77;;
3633;SDS011;1833;42.718;23.270;2023-04-22T09:37:28;55.67;;;49.10;;
3633;SDS011;1833;42.718;23.270;2023-04-22T09:39:57;59.10;;;50.77;;
3633;SDS011;1833;42.718;23.270;2023-04-22T09:42:24;41.03;;;36.83;;
3633;SDS011;1833;42.718;23.270;2023-04-22T09:44:53;32.43;;;29.23;;
3633;SDS011;1833;42.718;23.270;2023-04-22T09:47:20;39.20;;;35.50;;
3633;SDS011;1833;42.718;23.270;2023-04-22T09:49:48;35.90;;;29.10;;
3633;SDS011;1833;42.718;23.270;2023-04-22T09:52:19;34.77;;;31.30;;
3633;SDS011;1833;42.718;23.270;2023-04-22T09:54:48;31.97;;;29.20;;
3633;SDS011;1833;42.718;23.270;2023-04-22T09:57:16;32.53;;;29.20;;
3633;SDS011;1833;42.718;23.270;2023-04-22T09:59:44;39.50;;;35.10;;
3633;SDS011;1833;42.718;23.270;2023-04-22T10:02:12;39.33;;;33.73;;
3633;SDS011;1833;42.718;23.270;2023-04-22T10:04:40;31.73;;;28.80;;
3633;SDS011;1833;42.718;23.270;2023-04-22T10:07:07;32.17;;;29.37;;
3633;SDS011;1833;42.718;23.270;2023-04-22T10:09:35;47.70;;;28.27;;
3633;SDS011;1833;42.718;23.270;2023-04-22T10:12:02;43.13;;;38.60;;
3633;SDS011;1833;42.718;23.270;2023-04-22T10:14:30;32.67;;;29.50;;
3633;SDS011;1833;42.718;23.270;2023-04-22T10:16:58;30.17;;;27.23;;
3633;SDS011;1833;42.718;23.270;2023-04-22T10:19:28;31.13;;;28.47;;
3633;SDS011;1833;42.718;23.270;2023-04-22T10:21:56;30.00;;;27.20;;
3633;SDS011;1833;42.718;23.270;2023-04-22T10:24:24;33.27;;;30.30;;
3633;SDS011;1833;42.718;23.270;2023-04-22T10:26:53;32.17;;;29.27;;
3633;SDS011;1833;42.718;23.270;2023-04-22T10:29:20;29.93;;;27.37;;
3633;SDS011;1833;42.718;23.270;2023-04-22T10:31:53;33.60;;;30.10;;
3633;SDS011;1833;42.718;23.270;2023-04-22T10:34:21;44.40;;;35.73;;
3633;SDS011;1833;42.718;23.270;2023-04-22T10:36:56;32.27;;;29.50;;
3633;SDS011;1833;42.718;23.270;2023-04-22T10:39:24;31.80;;;28.90;;
3633;SDS011;1833;42.718;23.270;2023-04-22T10:41:55;32.93;;;29.97;;
3633;SDS011;1833;42.718;23.270;2023-04-22T10:44:26;31.77;;;28.80;;
3633;SDS011;1833;42.718;23.270;2023-04-22T10:46:54;31.53;;;28.53;;
3633;SDS011;1833;42.718;23.270;2023-04-22T10:49:22;30.63;;;27.97;;
3633;SDS011;1833;42.718;23.270;2023-04-22T10:51:50;30.53;;;27.73;;
3633;SDS011;1833;42.718;23.270;2023-04-22T10:57:06;33.17;;;30.17;;
3633;SDS011;1833;42.718;23.270;2023-04-22T10:59:34;32.73;;;29.63;;
3633;SDS011;1833;42.718;23.270;2023-04-22T11:02:07;36.60;;;33.00;;
3633;SDS011;1833;42.718;23.270;2023-04-22T11:04:35;31.40;;;28.03;;
3633;SDS011;1833;42.718;23.270;2023-04-22T11:07:13;31.30;;;28.40;;
3633;SDS011;1833;42.718;23.270;2023-04-22T11:09:42;43.97;;;39.30;;
3633;SDS011;1833;42.718;23.270;2023-04-22T11:14:56;30.37;;;27.80;;
3633;SDS011;1833;42.718;23.270;2023-04-22T11:17:24;29.07;;;26.37;;
3633;SDS011;1833;42.718;23.270;2023-04-22T11:19:52;32.10;;;28.87;;
3633;SDS011;1833;42.718;23.270;2023-04-22T11:22:21;30.90;;;28.10;;
3633;SDS011;1833;42.718;23.270;2023-04-22T11:24:52;42.67;;;28.10;;
3633;SDS011;1833;42.718;23.270;2023-04-22T11:27:20;29.00;;;26.50;;
3633;SDS011;1833;42.718;23.270;2023-04-22T11:30:01;30.30;;;27.07;;
3633;SDS011;1833;42.718;23.270;2023-04-22T11:32:29;30.27;;;27.37;;
3633;SDS011;1833;42.718;23.270;2023-04-22T11:34:56;29.80;;;27.10;;
3633;SDS011;1833;42.718;23.270;2023-04-22T11:37:24;28.33;;;25.77;;
3633;SDS011;1833;42.718;23.270;2023-04-22T11:39:52;30.57;;;27.97;;
3633;SDS011;1833;42.718;23.270;2023-04-22T11:42:20;32.00;;;29.10;;
3633;SDS011;1833;42.718;23.270;2023-04-22T11:44:47;30.77;;;27.57;;
3633;SDS011;1833;42.718;23.270;2023-04-22T11:47:16;28.70;;;26.20;;
3633;SDS011;1833;42.718;23.270;2023-04-22T11:49:53;30.27;;;27.57;;
3633;SDS011;1833;42.718;23.270;2023-04-22T11:52:21;29.93;;;27.20;;
3633;SDS011;1833;42.718;23.270;2023-04-22T11:54:48;31.63;;;28.67;;
3633;SDS011;1833;42.718;23.270;2023-04-22T11:57:15;32.43;;;29.50;;
3633;SDS011;1833;42.718;23.270;2023-04-22T11:59:55;31.40;;;28.50;;
3633;SDS011;1833;42.718;23.270;2023-04-22T12:02:25;30.93;;;28.03;;
3633;SDS011;1833;42.718;23.270;2023-04-22T12:04:52;31.57;;;28.77;;
3633;SDS011;1833;42.718;23.270;2023-04-22T12:07:19;31.40;;;28.63;;
3633;SDS011;1833;42.718;23.270;2023-04-22T12:09:46;31.33;;;28.37;;
3633;SDS011;1833;42.718;23.270;2023-04-22T12:12:15;29.63;;;27.13;;
3633;SDS011;1833;42.718;23.270;2023-04-22T12:14:44;29.80;;;27.30;;
3633;SDS011;1833;42.718;23.270;2023-04-22T12:17:11;29.30;;;26.77;;
3633;SDS011;1833;42.718;23.270;2023-04-22T12:19:43;30.17;;;27.40;;
3633;SDS011;1833;42.718;23.270;2023-04-22T12:22:12;32.63;;;29.30;;
3633;SDS011;1833;42.718;23.270;2023-04-22T12:24:49;30.57;;;27.97;;
3633;SDS011;1833;42.718;23.270;2023-04-22T12:27:16;32.53;;;29.20;;
3633;SDS011;1833;42.718;23.270;2023-04-22T12:29:49;30.30;;;27.60;;
3633;SDS011;1833;42.718;23.270;2023-04-22T12:32:17;29.97;;;27.20;;
3633;SDS011;1833;42.718;23.270;2023-04-22T12:34:46;30.20;;;27.50;;
3633;SDS011;1833;42.718;23.270;2023-04-22T12:37:13;28.97;;;26.37;;
3633;SDS011;1833;42.718;23.270;2023-04-22T12:39:41;27.87;;;25.47;;
3633;SDS011;1833;42.718;23.270;2023-04-22T12:42:09;28.63;;;25.93;;
3633;SDS011;1833;42.718;23.270;2023-04-22T12:44:36;30.20;;;27.43;;
3633;SDS011;1833;42.718;23.270;2023-04-22T12:47:03;28.63;;;26.30;;
3633;SDS011;1833;42.718;23.270;2023-04-22T12:49:31;29.13;;;26.67;;
3633;SDS011;1833;42.718;23.270;2023-04-22T12:51:59;30.87;;;28.10;;
3633;SDS011;1833;42.718;23.270;2023-04-22T12:54:27;30.43;;;27.83;;
3633;SDS011;1833;42.718;23.270;2023-04-22T12:56:54;29.90;;;27.30;;
3633;SDS011;1833;42.718;23.270;2023-04-22T12:59:21;29.50;;;27.00;;
3633;SDS011;1833;42.718;23.270;2023-04-22T13:01:49;31.17;;;28.20;;
3633;SDS011;1833;42.718;23.270;2023-04-22T13:04:17;30.87;;;28.23;;
3633;SDS011;1833;42.718;23.270;2023-04-22T13:06:44;31.90;;;28.77;;
3633;SDS011;1833;42.718;23.270;2023-04-22T13:09:15;30.00;;;27.30;;
3633;SDS011;1833;42.718;23.270;2023-04-22T13:11:43;31.30;;;28.00;;
3633;SDS011;1833;42.718;23.270;2023-04-22T13:14:13;30.03;;;27.13;;
3633;SDS011;1833;42.718;23.270;2023-04-22T13:16:40;34.03;;;28.73;;
3633;SDS011;1833;42.718;23.270;2023-04-22T13:19:07;31.10;;;28.30;;
3633;SDS011;1833;42.718;23.270;2023-04-22T13:21:35;29.50;;;26.70;;
3633;SDS011;1833;42.718;23.270;2023-04-22T13:24:02;30.90;;;28.20;;
3633;SDS011;1833;42.718;23.270;2023-04-22T13:26:31;29.03;;;26.50;;
3633;SDS011;1833;42.718;23.270;2023-04-22T13:28:58;30.10;;;27.37;;
3633;SDS011;1833;42.718;23.270;2023-04-22T13:31:25;30.93;;;28.23;;
3633;SDS011;1833;42.718;23.270;2023-04-22T13:33:52;30.40;;;27.53;;
3633;SDS011;1833;42.718;23.270;2023-04-22T13:36:20;29.77;;;27.20;;
3633;SDS011;1833;42.718;23.270;2023-04-22T13:38:47;29.70;;;27.10;;
3633;SDS011;1833;42.718;23.270;2023-04-22T13:41:15;28.67;;;26.20;;
3633;SDS011;1833;42.718;23.270;2023-04-22T13:43:44;30.33;;;27.40;;
3633;SDS011;1833;42.718;23.270;2023-04-22T13:46:15;30.47;;;27.80;;
3633;SDS011;1833;42.718;23.270;2023-04-22T13:48:43;29.70;;;27.10;;
3633;SDS011;1833;42.718;23.270;2023-04-22T13:51:10;29.40;;;26.63;;
3633;SDS011;1833;42.718;23.270;2023-04-22T13:53:37;31.33;;;28.63;;
3633;SDS011;1833;42.718;23.270;2023-04-22T13:56:05;30.87;;;27.77;;
3633;SDS011;1833;42.718;23.270;2023-04-22T13:58:32;30.00;;;27.40;;
3633;SDS011;1833;42.718;23.270;2023-04-22T14:01:01;30.60;;;27.90;;
3633;SDS011;1833;42.718;23.270;2023-04-22T14:03:29;30.20;;;27.03;;
3633;SDS011;1833;42.718;23.270;2023-04-22T14:05:56;30.73;;;27.77;;
3633;SDS011;1833;42.718;23.270;2023-04-22T14:08:25;29.97;;;27.17;;
3633;SDS011;1833;42.718;23.270;2023-04-22T14:10:52;30.90;;;28.17;;
3633;SDS011;1833;42.718;23.270;2023-04-22T14:13:20;31.90;;;29.10;;
3633;SDS011;1833;42.718;23.270;2023-04-22T14:15:47;32.97;;;29.97;;
3633;SDS011;1833;42.718;23.270;2023-04-22T14:18:17;31.23;;;28.17;;
3633;SDS011;1833;42.718;23.270;2023-04-22T14:20:44;31.17;;;28.33;;
3633;SDS011;1833;42.718;23.270;2023-04-22T14:23:12;31.83;;;29.03;;
3633;SDS011;1833;42.718;23.270;2023-04-22T14:25:39;31.13;;;28.23;;
3633;SDS011;1833;42.718;23.270;2023-04-22T14:28:07;30.10;;;27.30;;
3633;SDS011;1833;42.718;23.270;2023-04-22T14:30:34;31.13;;;28.33;;
3633;SDS011;1833;42.718;23.270;2023-04-22T14:33:01;29.60;;;26.70;;
3633;SDS011;1833;42.718;23.270;2023-04-22T14:35:32;30.97;;;28.07;;
3633;SDS011;1833;42.718;23.270;2023-04-22T14:37:59;29.83;;;27.03;;
3633;SDS011;1833;42.718;23.270;2023-04-22T14:40:27;29.07;;;26.57;;
3633;SDS011;1833;42.718;23.270;2023-04-22T14:42:55;28.77;;;26.20;;